createdAt,value
2023-03-15T00:10:04.379Z,51.95
2023-03-15T00:12:33.771Z,51.64
2023-03-15T00:15:01.451Z,51.64
2023-03-15T00:17:28.376Z,51.71
2023-03-15T00:19:55.456Z,51.88
2023-03-15T00:22:22.651Z,52.05
2023-03-15T00:24:49.548Z,52.16
2023-03-15T00:27:16.467Z,52.30
2023-03-15T00:29:43.253Z,52.41
2023-03-15T00:32:10.483Z,52.63
2023-03-15T00:34:40.788Z,52.74
2023-03-15T00:37:08.142Z,53.04
2023-03-15T00:39:37.442Z,53.17
2023-03-15T00:42:04.450Z,53.37
2023-03-15T00:44:34.937Z,53.44
2023-03-15T00:47:02.648Z,53.64
2023-03-15T00:49:33.313Z,53.69
2023-03-15T00:52:01.941Z,53.88
2023-03-15T00:54:29.560Z,54.00
2023-03-15T00:56:56.783Z,54.08
2023-03-15T00:59:24.273Z,54.34
2023-03-15T01:01:51.767Z,54.47
2023-03-15T01:04:19.095Z,54.56
2023-03-15T01:06:46.749Z,54.74
2023-03-15T01:09:13.723Z,54.90
2023-03-15T01:11:41.360Z,55.05
2023-03-15T01:14:09.129Z,55.06
2023-03-15T01:16:40.528Z,55.16
2023-03-15T01:19:11.612Z,55.28
2023-03-15T01:21:38.805Z,55.46
2023-03-15T01:24:05.954Z,55.40
2023-03-15T01:26:33.709Z,55.34
2023-03-15T01:29:00.503Z,55.36
2023-03-15T01:31:29.802Z,55.30
2023-03-15T01:33:57.697Z,55.28
2023-03-15T01:36:25.298Z,55.21
2023-03-15T01:38:54.550Z,55.17
2023-03-15T01:41:26.715Z,55.07
2023-03-15T01:43:54.068Z,54.92
2023-03-15T01:46:26.441Z,54.89
2023-03-15T01:49:12.028Z,54.96
2023-03-15T01:51:46.397Z,55.07
2023-03-15T01:54:38.675Z,55.27
2023-03-15T01:57:26.729Z,55.32
2023-03-15T01:59:56.958Z,55.41
2023-03-15T02:02:24.223Z,55.68
2023-03-15T02:04:59.611Z,55.85
2023-03-15T02:07:27.515Z,55.87
2023-03-15T02:10:05.223Z,56.04
2023-03-15T02:12:38.843Z,56.09
2023-03-15T02:15:07.174Z,56.23
2023-03-15T02:17:42.759Z,56.40
2023-03-15T02:20:32.682Z,56.43
2023-03-15T02:23:07.849Z,56.31
2023-03-15T02:25:45.900Z,56.27
2023-03-15T02:28:14.367Z,56.20
2023-03-15T02:30:42.939Z,56.17
2023-03-15T02:33:15.532Z,56.11
2023-03-15T02:35:42.641Z,56.03
2023-03-15T02:38:12.436Z,56.04
2023-03-15T02:40:40.438Z,56.16
2023-03-15T02:43:18.546Z,56.35
2023-03-15T02:45:46.032Z,56.63
2023-03-15T02:48:13.270Z,56.89
2023-03-15T02:50:45.028Z,57.22
2023-03-15T02:53:12.503Z,57.51
2023-03-15T02:55:39.539Z,57.75
2023-03-15T02:58:06.759Z,57.94
2023-03-15T03:00:33.968Z,58.24
2023-03-15T03:03:01.678Z,58.31
2023-03-15T03:05:29.019Z,58.43
2023-03-15T03:07:56.419Z,58.48
2023-03-15T03:10:23.457Z,58.54
2023-03-15T03:12:53.171Z,58.62
2023-03-15T03:15:24.807Z,58.75
2023-03-15T03:17:54.028Z,58.74
2023-03-15T03:20:23.877Z,58.65
2023-03-15T03:22:55.532Z,58.61
2023-03-15T03:25:26.307Z,58.51
2023-03-15T03:27:56.721Z,58.50
2023-03-15T03:30:24.107Z,58.53
2023-03-15T03:32:51.643Z,58.61
2023-03-15T03:35:20.866Z,58.87
2023-03-15T03:37:47.814Z,58.98
2023-03-15T03:40:23.082Z,59.29
2023-03-15T03:42:50.015Z,59.44
2023-03-15T03:45:18.478Z,59.72
2023-03-15T03:47:51.434Z,60.13
2023-03-15T03:50:18.410Z,60.38
2023-03-15T03:52:46.174Z,60.31
2023-03-15T03:55:18.862Z,60.34
2023-03-15T03:57:45.798Z,60.26
2023-03-15T04:00:19.024Z,60.42
2023-03-15T04:02:48.952Z,60.40
2023-03-15T04:05:16.772Z,60.32
2023-03-15T04:07:45.156Z,60.22
2023-03-15T04:10:16.307Z,60.32
2023-03-15T04:12:46.219Z,60.46
2023-03-15T04:15:14.702Z,60.49
2023-03-15T04:17:42.561Z,60.46
2023-03-15T04:20:12.279Z,60.62
2023-03-15T04:22:49.075Z,60.79
2023-03-15T04:25:26.137Z,60.96
2023-03-15T04:28:10.213Z,61.12
2023-03-15T04:30:58.263Z,61.18
2023-03-15T04:33:37.469Z,61.38
2023-03-15T04:36:07.706Z,61.39
2023-03-15T04:38:47.840Z,61.54
2023-03-15T04:41:42.320Z,61.50
2023-03-15T04:44:34.937Z,61.58
2023-03-15T04:47:04.906Z,61.61
2023-03-15T04:49:46.994Z,61.40
2023-03-15T04:52:40.419Z,61.27
2023-03-15T04:55:31.304Z,61.25
2023-03-15T04:57:58.072Z,61.24
2023-03-15T05:00:48.376Z,61.29
2023-03-15T05:03:28.252Z,61.31
2023-03-15T05:06:14.786Z,61.30
2023-03-15T05:09:04.437Z,61.35
2023-03-15T05:11:51.562Z,61.51
2023-03-15T05:14:35.806Z,61.59
2023-03-15T05:17:14.934Z,61.68
2023-03-15T05:19:41.983Z,61.59
2023-03-15T05:22:27.873Z,61.43
2023-03-15T05:25:14.730Z,61.30
2023-03-15T05:28:07.771Z,61.22
2023-03-15T05:31:01.972Z,61.12
2023-03-15T05:33:54.164Z,60.87
2023-03-15T05:36:36.631Z,60.50
2023-03-15T05:39:16.259Z,60.51
2023-03-15T05:42:06.239Z,60.39
2023-03-15T05:44:49.659Z,60.42
2023-03-15T05:47:36.855Z,60.68
2023-03-15T05:50:17.116Z,60.76
2023-03-15T05:52:59.417Z,60.86
2023-03-15T05:55:43.165Z,60.83
2023-03-15T05:58:12.148Z,60.75
2023-03-15T06:01:03.874Z,60.72
2023-03-15T06:03:58.532Z,60.55
2023-03-15T06:06:26.660Z,60.57
2023-03-15T06:08:53.588Z,60.59
2023-03-15T06:11:21.456Z,60.51
2023-03-15T06:13:48.917Z,60.46
2023-03-15T06:16:25.783Z,60.39
2023-03-15T06:18:55.809Z,60.28
2023-03-15T06:21:23.059Z,60.17
2023-03-15T06:23:57.071Z,60.00
2023-03-15T06:26:23.876Z,59.94
2023-03-15T06:28:53.325Z,59.91
2023-03-15T06:31:23.030Z,59.91
2023-03-15T06:33:55.063Z,59.78
2023-03-15T06:36:24.598Z,59.48
2023-03-15T06:38:54.108Z,59.14
2023-03-15T06:41:21.261Z,58.83
2023-03-15T06:43:51.582Z,58.70
2023-03-15T06:46:18.820Z,58.48
2023-03-15T06:48:45.705Z,58.13
2023-03-15T06:51:15.798Z,57.81
2023-03-15T06:53:43.363Z,57.50
2023-03-15T06:56:10.616Z,57.45
2023-03-15T06:58:38.708Z,57.36
2023-03-15T07:01:07.434Z,57.26
2023-03-15T07:03:35.338Z,56.90
2023-03-15T07:06:02.512Z,56.84
2023-03-15T07:08:30.226Z,57.07
2023-03-15T07:10:57.339Z,57.07
2023-03-15T07:13:24.256Z,57.18
2023-03-15T07:56:27.083Z,55.89
2023-03-15T07:58:54.044Z,55.70
2023-03-15T08:01:21.101Z,55.62
2023-03-15T08:03:48.400Z,55.25
2023-03-15T08:06:17.197Z,55.05
2023-03-15T08:08:44.385Z,54.94
2023-03-15T08:11:11.228Z,55.02
2023-03-15T08:13:41.248Z,54.85
2023-03-15T08:16:08.980Z,54.94
2023-03-15T08:18:46.208Z,54.94
2023-03-15T08:21:13.494Z,54.92
2023-03-15T08:23:40.285Z,55.22
2023-03-15T08:30:20.615Z,55.35
2023-03-15T08:32:48.657Z,55.30
2023-03-15T08:35:16.252Z,55.10
2023-03-15T08:37:47.279Z,54.72
2023-03-15T08:40:15.402Z,54.60
2023-03-15T08:42:42.152Z,54.67
2023-03-15T08:45:10.886Z,54.59
2023-03-15T08:47:54.170Z,54.54
2023-03-15T08:50:25.856Z,54.59
2023-03-15T08:52:52.654Z,54.57
2023-03-15T08:55:19.494Z,54.57
2023-03-15T08:57:46.282Z,54.50
2023-03-15T09:00:19.607Z,54.41
2023-03-15T09:02:51.442Z,54.41
2023-03-15T09:05:18.334Z,54.32
2023-03-15T09:07:45.152Z,54.05
2023-03-15T09:10:17.457Z,53.99
2023-03-15T09:12:46.306Z,54.21
2023-03-15T09:15:13.221Z,54.11
2023-03-15T09:17:42.835Z,53.78
2023-03-15T09:20:13.716Z,53.70
2023-03-15T09:22:44.333Z,53.79
2023-03-15T09:25:11.415Z,53.86
2023-03-15T09:27:41.499Z,53.62
2023-03-15T09:30:15.632Z,53.76
2023-03-15T09:32:43.720Z,53.74
2023-03-15T09:35:13.623Z,53.85
2023-03-15T09:37:41.985Z,53.65
2023-03-15T09:40:23.894Z,53.49
2023-03-15T09:43:03.298Z,53.38
2023-03-15T09:45:52.295Z,53.43
2023-03-15T09:48:45.865Z,53.33
2023-03-15T09:51:38.928Z,52.93
2023-03-15T09:54:31.752Z,52.56
2023-03-15T09:57:02.940Z,52.25
2023-03-15T09:59:35.791Z,51.89
2023-03-15T10:02:12.723Z,51.99
2023-03-15T10:04:41.758Z,51.90
2023-03-15T10:07:13.304Z,51.89
2023-03-15T10:09:40.054Z,51.87
2023-03-15T10:12:15.565Z,51.92
2023-03-15T10:15:21.669Z,52.10
2023-03-15T10:17:59.045Z,51.55
2023-03-15T10:20:36.278Z,51.30
2023-03-15T10:23:16.186Z,51.21
2023-03-15T10:25:47.325Z,51.23
2023-03-15T10:28:27.241Z,51.32
2023-03-15T10:31:00.205Z,51.57
2023-03-15T10:33:34.820Z,51.42
2023-03-15T10:36:10.897Z,51.14
2023-03-15T10:38:39.002Z,51.04
2023-03-15T10:41:06.486Z,50.89
2023-03-15T10:43:36.369Z,50.81
2023-03-15T10:46:22.675Z,50.85
2023-03-15T10:48:58.668Z,50.80
2023-03-15T10:51:28.764Z,50.23
2023-03-15T10:53:59.254Z,49.89
2023-03-15T10:56:28.231Z,49.58
2023-03-15T10:59:11.606Z,49.33
2023-03-15T11:01:39.627Z,49.29
2023-03-15T11:04:07.242Z,49.11
2023-03-15T11:06:45.887Z,48.85
2023-03-15T11:09:17.587Z,48.80
2023-03-15T11:11:55.152Z,48.56
2023-03-15T11:14:26.704Z,48.34
2023-03-15T11:16:55.708Z,48.16
2023-03-15T11:19:28.489Z,47.99
2023-03-15T11:21:57.332Z,47.90
2023-03-15T11:24:27.985Z,48.22
2023-03-15T11:26:55.631Z,48.40
2023-03-15T11:29:28.811Z,48.68
2023-03-15T11:31:55.777Z,48.90
2023-03-15T11:34:28.839Z,48.89
2023-03-15T11:37:07.535Z,48.96
2023-03-15T11:39:44.645Z,49.01
2023-03-15T11:42:18.429Z,48.86
2023-03-15T11:44:49.182Z,48.62
2023-03-15T11:47:17.870Z,48.68
2023-03-15T11:49:55.143Z,48.36
2023-03-15T11:52:23.227Z,48.11
2023-03-15T11:54:57.836Z,48.03
2023-03-15T11:57:27.735Z,48.24
2023-03-15T12:00:21.716Z,48.06
2023-03-15T12:02:50.994Z,47.50
2023-03-15T12:05:58.882Z,47.12
2023-03-15T12:08:34.135Z,46.37
2023-03-15T12:11:01.282Z,46.24
2023-03-15T12:13:30.022Z,45.96
2023-03-15T12:28:10.083Z,45.55
2023-03-15T12:30:42.872Z,44.62
2023-03-15T12:33:16.895Z,44.63
2023-03-15T12:35:45.009Z,44.65
2023-03-15T12:38:20.867Z,44.69
2023-03-15T12:40:53.240Z,44.92
2023-03-15T12:44:02.554Z,45.23
2023-03-15T12:46:41.484Z,45.10
2023-03-15T12:49:18.722Z,44.97
2023-03-15T12:52:00.555Z,45.07
2023-03-15T12:54:41.850Z,44.71
2023-03-15T12:57:22.966Z,44.55
2023-03-15T12:59:55.750Z,44.83
2023-03-15T13:02:43.812Z,44.84
2023-03-15T13:05:26.460Z,44.52
2023-03-15T13:08:22.159Z,44.61
2023-03-15T13:11:29.681Z,44.90
2023-03-15T13:14:07.585Z,44.68
2023-03-15T13:16:48.762Z,44.84
2023-03-15T13:19:19.393Z,44.98
2023-03-15T13:22:08.149Z,44.87
2023-03-15T13:25:15.948Z,44.64
2023-03-15T13:27:47.198Z,44.15
2023-03-15T13:30:32.791Z,43.73
2023-03-15T13:33:15.469Z,43.46
2023-03-15T13:36:01.150Z,43.28
2023-03-15T13:38:43.745Z,43.28
2023-03-15T13:41:26.406Z,43.53
2023-03-15T13:43:58.092Z,43.59
2023-03-15T13:46:27.737Z,43.63
2023-03-15T13:48:57.791Z,43.66
2023-03-15T13:51:36.055Z,43.42
2023-03-15T13:54:17.473Z,42.83
2023-03-15T13:57:09.143Z,41.72
2023-03-15T13:59:44.457Z,40.26
2023-03-15T14:02:20.111Z,38.72
2023-03-15T14:04:53.767Z,36.84
2023-03-15T14:07:30.384Z,35.77
2023-03-15T14:10:24.221Z,34.72
2023-03-15T14:12:57.450Z,33.90
2023-03-15T14:15:30.544Z,33.23
2023-03-15T14:18:02.420Z,32.20
2023-03-15T14:20:36.927Z,31.40
2023-03-15T14:23:06.148Z,30.50
2023-03-15T14:25:35.427Z,30.07
2023-03-15T14:28:04.754Z,30.02
2023-03-15T14:30:36.180Z,29.88
2023-03-15T14:33:05.354Z,29.31
2023-03-15T14:35:36.445Z,28.55
2023-03-15T14:38:24.527Z,27.72
2023-03-15T14:40:53.516Z,27.59
2023-03-15T14:43:21.956Z,27.23
2023-03-15T14:45:50.723Z,26.97
2023-03-15T14:48:27.782Z,26.42
2023-03-15T14:50:56.599Z,26.27
2023-03-15T14:53:26.307Z,26.34
2023-03-15T14:55:56.428Z,26.83
2023-03-15T14:58:25.118Z,27.75
2023-03-15T15:00:59.988Z,29.02
2023-03-15T15:03:59.157Z,29.81
2023-03-15T15:06:28.401Z,30.59
2023-03-15T15:08:58.865Z,31.67
2023-03-15T15:11:27.360Z,32.67
2023-03-15T15:13:56.745Z,33.56
2023-03-15T15:16:25.803Z,34.10
2023-03-15T15:18:54.468Z,34.32
2023-03-15T15:21:33.855Z,34.80
2023-03-15T15:24:03.384Z,35.65
2023-03-15T15:26:31.977Z,36.02
2023-03-15T15:29:01.033Z,36.54
2023-03-15T15:31:29.911Z,36.94
2023-03-15T15:34:04.024Z,37.44
2023-03-15T15:36:34.691Z,38.22
2023-03-15T15:39:06.362Z,38.77
2023-03-15T15:41:35.566Z,39.45
2023-03-15T15:44:16.042Z,40.26
2023-03-15T15:46:45.222Z,40.90
2023-03-15T15:49:13.694Z,41.60
2023-03-15T15:51:45.975Z,42.12
2023-03-15T15:54:18.540Z,42.83
2023-03-15T15:56:51.927Z,43.56
2023-03-15T15:59:20.079Z,44.29
2023-03-15T16:02:03.437Z,44.77
2023-03-15T16:04:33.298Z,45.13
2023-03-15T16:07:02.631Z,45.63
2023-03-15T16:09:32.073Z,46.03
2023-03-15T16:12:03.007Z,46.56
2023-03-15T16:14:33.837Z,47.15
2023-03-15T16:17:02.210Z,47.69
2023-03-15T16:19:31.832Z,48.16
2023-03-15T16:22:00.258Z,48.61
2023-03-15T16:24:31.558Z,49.00
2023-03-15T16:27:04.341Z,49.53
2023-03-15T16:29:37.474Z,49.97
2023-03-15T16:32:16.931Z,50.31
2023-03-15T16:34:52.510Z,50.82
2023-03-15T16:37:25.713Z,51.32
2023-03-15T16:39:56.138Z,51.81
2023-03-15T16:42:25.765Z,52.23
2023-03-15T16:44:53.849Z,52.53
2023-03-15T16:47:22.318Z,52.81
2023-03-15T16:49:50.467Z,53.01
2023-03-15T16:52:18.742Z,53.12
2023-03-15T16:54:48.826Z,53.47
2023-03-15T16:57:22.027Z,53.80
2023-03-15T16:59:51.464Z,54.00
2023-03-15T17:02:25.193Z,54.17
2023-03-15T17:04:54.168Z,54.35
2023-03-15T17:07:25.958Z,54.50
2023-03-15T17:09:54.499Z,54.66
2023-03-15T17:12:26.779Z,54.82
2023-03-15T17:14:57.665Z,54.98
2023-03-15T17:17:26.865Z,55.09
2023-03-15T17:20:11.281Z,55.20
2023-03-15T17:22:43.548Z,55.21
2023-03-15T17:25:12.038Z,55.44
2023-03-15T17:27:41.830Z,55.40
2023-03-15T17:30:17.854Z,55.36
2023-03-15T17:32:47.055Z,55.41
2023-03-15T17:35:16.287Z,55.44
2023-03-15T17:37:45.073Z,55.59
2023-03-15T17:40:24.024Z,55.64
2023-03-15T17:42:52.765Z,55.74
2023-03-15T17:45:32.024Z,56.11
2023-03-15T17:48:00.917Z,56.36
2023-03-15T17:50:31.141Z,56.59
2023-03-15T17:53:05.209Z,56.92
2023-03-15T17:55:36.289Z,57.29
2023-03-15T17:58:11.058Z,57.59
2023-03-15T18:00:39.490Z,57.80
2023-03-15T18:03:09.473Z,57.89
2023-03-15T18:05:38.412Z,57.90
2023-03-15T18:08:08.222Z,57.98
2023-03-15T18:10:38.451Z,57.96
2023-03-15T18:13:06.826Z,58.04
2023-03-15T18:15:37.054Z,57.98
2023-03-15T18:18:06.464Z,58.05
2023-03-15T18:20:35.349Z,58.05
2023-03-15T18:23:07.169Z,58.15
2023-03-15T18:25:36.103Z,58.30
2023-03-15T18:28:04.684Z,58.49
2023-03-15T18:30:32.953Z,58.70
2023-03-15T18:33:01.816Z,58.88
2023-03-15T18:35:34.553Z,59.08
2023-03-15T18:38:04.348Z,59.43
2023-03-15T18:40:33.951Z,59.57
2023-03-15T18:43:04.320Z,59.63
2023-03-15T18:45:34.606Z,59.75
2023-03-15T18:48:02.697Z,59.87
2023-03-15T18:50:31.766Z,59.81
2023-03-15T18:53:00.199Z,59.67
2023-03-15T18:55:28.543Z,59.83
2023-03-15T18:57:57.604Z,59.90
2023-03-15T19:00:36.355Z,59.83
2023-03-15T19:03:05.956Z,59.82
2023-03-15T19:05:36.943Z,59.85
2023-03-15T19:08:05.674Z,59.99
2023-03-15T19:10:34.160Z,60.11
2023-03-15T19:13:04.447Z,60.23
2023-03-15T19:15:33.546Z,60.37
2023-03-15T19:18:02.271Z,60.47
2023-03-15T19:20:32.436Z,60.50
2023-03-15T19:23:01.168Z,60.52
2023-03-15T19:25:29.855Z,60.52
2023-03-15T19:28:02.849Z,60.57
2023-03-15T19:30:32.705Z,60.52
2023-03-15T19:33:01.516Z,60.70
2023-03-15T19:35:31.446Z,60.83
2023-03-15T19:38:01.067Z,60.81
2023-03-15T19:40:40.445Z,61.01
2023-03-15T19:43:10.327Z,61.12
2023-03-15T19:45:38.420Z,61.09
2023-03-15T19:48:08.159Z,61.05
2023-03-15T19:50:36.510Z,61.22
2023-03-15T19:53:11.991Z,61.45
2023-03-15T19:55:40.312Z,61.57
2023-03-15T19:58:08.531Z,61.64
2023-03-15T20:00:38.809Z,61.73
2023-03-15T20:03:07.090Z,61.90
2023-03-15T20:05:38.268Z,62.06
2023-03-15T20:08:08.598Z,62.32
2023-03-15T20:10:36.730Z,62.50
2023-03-15T20:13:05.928Z,62.60
2023-03-15T20:15:35.031Z,62.49
2023-03-15T20:18:08.233Z,62.36
2023-03-15T20:20:36.499Z,62.04
2023-03-15T20:23:04.530Z,61.94
2023-03-15T20:25:35.933Z,62.14
2023-03-15T20:28:04.810Z,62.29
2023-03-15T20:30:32.992Z,62.21
2023-03-15T20:33:01.554Z,62.24
2023-03-15T20:35:29.984Z,62.38
2023-03-15T20:38:06.774Z,62.39
2023-03-15T20:40:39.212Z,62.59
2023-03-15T20:43:12.489Z,62.73
2023-03-15T20:45:42.406Z,62.95
2023-03-15T20:48:11.300Z,63.08
2023-03-15T20:50:40.198Z,63.22
2023-03-15T20:53:08.572Z,63.46
2023-03-15T20:55:41.281Z,63.55
2023-03-15T20:58:10.137Z,63.53
2023-03-15T21:00:44.587Z,63.46
2023-03-15T21:03:14.730Z,63.54
2023-03-15T21:05:44.700Z,63.61
2023-03-15T21:08:18.958Z,63.56
2023-03-15T21:10:47.186Z,63.68
2023-03-15T21:13:15.256Z,63.88
2023-03-15T21:15:49.727Z,64.04
2023-03-15T21:18:20.008Z,64.09
2023-03-15T21:20:55.857Z,64.11
2023-03-15T21:23:28.018Z,64.19
2023-03-15T21:25:57.768Z,64.20
2023-03-15T21:28:32.864Z,64.22
2023-03-15T21:31:02.030Z,63.99
2023-03-15T21:33:31.118Z,63.99
2023-03-15T21:36:00.521Z,64.01
2023-03-15T21:38:31.624Z,64.04
2023-03-15T21:41:01.151Z,64.08
2023-03-15T21:43:31.943Z,64.25
2023-03-15T21:46:01.606Z,64.23
2023-03-15T21:48:37.077Z,64.19
2023-03-15T21:51:06.207Z,64.22
2023-03-15T21:53:36.220Z,64.08
2023-03-15T21:56:05.926Z,63.84
2023-03-15T21:58:34.405Z,63.73
2023-03-15T22:01:04.939Z,63.74
2023-03-15T22:03:34.144Z,64.04
2023-03-15T22:06:02.519Z,64.24
2023-03-15T22:08:33.777Z,64.34
2023-03-15T22:11:02.150Z,64.56
2023-03-15T22:13:30.878Z,64.88
2023-03-15T22:15:59.740Z,65.18
2023-03-15T22:18:28.957Z,65.39
2023-03-15T22:20:57.808Z,65.36
2023-03-15T22:23:26.899Z,65.35
2023-03-15T22:25:55.689Z,65.34
2023-03-15T22:28:27.452Z,65.45
2023-03-15T22:30:55.973Z,65.43
2023-03-15T22:33:25.850Z,65.52
2023-03-15T22:35:58.276Z,65.70
2023-03-15T22:38:37.726Z,65.97
2023-03-15T22:41:08.704Z,66.20
2023-03-15T22:43:37.187Z,66.29
2023-03-15T22:46:06.493Z,66.35
2023-03-15T22:48:35.586Z,66.39
2023-03-15T22:51:10.011Z,66.36
2023-03-15T22:53:39.101Z,66.09
2023-03-15T22:56:07.605Z,66.05
2023-03-15T22:58:36.582Z,65.98
2023-03-15T23:01:05.440Z,65.80
2023-03-15T23:03:34.415Z,65.81
2023-03-15T23:06:02.695Z,65.75
2023-03-15T23:08:31.561Z,65.72
2023-03-15T23:11:00.323Z,65.64
2023-03-15T23:13:28.708Z,65.67
2023-03-15T23:16:04.294Z,65.66
2023-03-15T23:18:34.414Z,65.75
2023-03-15T23:21:07.063Z,65.64
2023-03-15T23:23:35.948Z,65.63
2023-03-15T23:26:04.122Z,65.69
2023-03-15T23:28:36.691Z,65.80
2023-03-15T23:31:05.940Z,65.92
2023-03-15T23:33:34.990Z,65.92
2023-03-15T23:36:06.047Z,65.80
2023-03-15T23:38:36.057Z,65.50
2023-03-15T23:41:09.475Z,65.17
2023-03-15T23:43:38.508Z,65.05
2023-03-15T23:46:06.817Z,65.01
2023-03-15T23:48:37.354Z,64.82
2023-03-15T23:51:06.038Z,64.84
2023-03-15T23:53:36.157Z,64.73
2023-03-15T23:56:04.950Z,64.83
2023-03-15T23:58:33.153Z,65.01
